createdAt,value
2016-10-11T00:00:39.863Z,0
2016-10-11T00:01:39.860Z,0
2016-10-11T00:02:39.850Z,0
2016-10-11T00:03:39.842Z,0
2016-10-11T00:04:39.845Z,0
2016-10-11T00:05:39.823Z,0
2016-10-11T00:06:39.813Z,0
2016-10-11T00:07:39.808Z,0
2016-10-11T00:08:39.796Z,0
2016-10-11T00:09:39.782Z,0
2016-10-11T00:10:39.785Z,0
2016-10-11T00:11:39.765Z,0
2016-10-11T00:12:39.764Z,0
2016-10-11T00:13:39.749Z,0
2016-10-11T00:14:39.743Z,0
2016-10-11T00:15:39.883Z,0
2016-10-11T00:16:55.037Z,0
2016-10-11T00:18:39.863Z,0
2016-10-11T00:19:40.397Z,0
2016-10-11T00:20:39.733Z,0
2016-10-11T00:21:40.581Z,0
2016-10-11T00:22:39.667Z,0
2016-10-11T00:23:39.661Z,0
2016-10-11T00:24:39.658Z,0
2016-10-11T00:25:40.494Z,0
2016-10-11T00:26:40.684Z,0
2016-10-11T00:27:39.630Z,0
2016-10-11T00:28:39.629Z,0
2016-10-11T00:29:39.605Z,0
2016-10-11T00:30:39.953Z,0
2016-10-11T00:31:39.593Z,0
2016-10-11T00:32:39.583Z,0
2016-10-11T00:33:39.572Z,0
2016-10-11T00:34:39.564Z,0
2016-10-11T00:35:39.555Z,0
2016-10-11T00:36:39.549Z,0
2016-10-11T00:37:39.537Z,0
2016-10-11T00:38:39.522Z,0
2016-10-11T00:39:39.512Z,0
2016-10-11T00:40:39.513Z,0
2016-10-11T00:41:39.493Z,0
2016-10-11T00:42:39.492Z,0
2016-10-11T00:43:39.487Z,0
2016-10-11T00:44:39.481Z,0
2016-10-11T00:45:39.470Z,0
2016-10-11T00:46:39.464Z,0
2016-10-11T00:47:39.452Z,0
2016-10-11T00:48:39.440Z,0
2016-10-11T00:49:41.480Z,0
2016-10-11T00:50:42.536Z,0
2016-10-11T00:51:42.041Z,0
2016-10-11T00:52:41.576Z,0
2016-10-11T00:53:40.927Z,0
2016-10-11T00:54:39.390Z,0
2016-10-11T00:55:39.545Z,0
2016-10-11T00:56:39.367Z,0
2016-10-11T00:57:39.372Z,0
2016-10-11T00:58:39.429Z,0
2016-10-11T00:59:41.174Z,0
2016-10-11T01:00:39.522Z,0
2016-10-11T01:01:39.745Z,0
2016-10-11T01:02:39.673Z,0
2016-10-11T01:03:40.688Z,0
2016-10-11T01:04:39.299Z,0
2016-10-11T01:05:39.289Z,0
2016-10-11T01:06:39.289Z,0
2016-10-11T01:07:39.269Z,0
2016-10-11T01:08:39.265Z,0
2016-10-11T01:09:39.262Z,0
2016-10-11T01:10:39.252Z,0
2016-10-11T01:11:39.236Z,0
2016-10-11T01:12:39.228Z,0
2016-10-11T01:13:39.222Z,0
2016-10-11T01:14:39.212Z,0
2016-10-11T01:15:39.212Z,0
2016-10-11T01:16:39.195Z,0
2016-10-11T01:17:39.186Z,0
2016-10-11T01:18:39.175Z,0
2016-10-11T01:19:39.164Z,0
2016-10-11T01:20:39.168Z,0
2016-10-11T01:21:39.165Z,0
2016-10-11T01:22:39.147Z,0
2016-10-11T01:23:39.148Z,0
2016-10-11T01:24:39.131Z,0
2016-10-11T01:25:39.119Z,0
2016-10-11T01:26:39.107Z,0
2016-10-11T01:27:39.098Z,0
2016-10-11T01:28:39.091Z,0
2016-10-11T01:29:39.075Z,0
2016-10-11T01:30:39.075Z,0
2016-10-11T01:31:39.065Z,0
2016-10-11T01:32:39.058Z,0
2016-10-11T01:33:39.042Z,0
2016-10-11T01:34:39.752Z,0
2016-10-11T01:37:39.721Z,0
2016-10-11T01:38:39.505Z,0
2016-10-11T01:39:38.998Z,0
2016-10-11T01:40:39.489Z,0
2016-10-11T01:41:38.979Z,0
2016-10-11T01:42:38.979Z,0
2016-10-11T01:43:39.564Z,0
2016-10-11T01:44:54.824Z,0
2016-10-11T01:45:39.747Z,0
2016-10-11T01:46:54.253Z,0
2016-10-11T01:47:54.691Z,0
2016-10-11T01:48:38.915Z,0
2016-10-11T01:49:39.474Z,0
2016-10-11T01:50:38.911Z,0
2016-10-11T01:51:38.894Z,0
2016-10-11T01:52:38.887Z,0
2016-10-11T01:53:38.873Z,0
2016-10-11T01:54:38.871Z,0
2016-10-11T01:55:38.855Z,0
2016-10-11T01:56:39.149Z,0
2016-10-11T01:57:38.842Z,0
2016-10-11T01:58:38.834Z,0
2016-10-11T01:59:38.827Z,0
2016-10-11T02:00:38.812Z,0
2016-10-11T02:01:38.816Z,0
2016-10-11T02:02:38.842Z,0
2016-10-11T02:03:38.791Z,0
2016-10-11T02:04:38.780Z,0
2016-10-11T02:05:38.769Z,0
2016-10-11T02:06:38.763Z,0
2016-10-11T02:07:38.757Z,0
2016-10-11T02:08:41.093Z,0
2016-10-11T02:09:39.707Z,0
2016-10-11T02:10:40.281Z,0
2016-10-11T02:11:40.498Z,0
2016-10-11T02:12:39.594Z,0
2016-10-11T02:13:38.701Z,0
2016-10-11T02:14:38.701Z,0
2016-10-11T02:15:38.694Z,0
2016-10-11T02:16:38.681Z,0
2016-10-11T02:17:41.843Z,0
2016-10-11T02:18:40.727Z,0
2016-10-11T02:19:38.656Z,0
2016-10-11T02:20:39.265Z,0
2016-10-11T02:21:38.888Z,0
2016-10-11T02:22:38.629Z,0
2016-10-11T02:23:38.683Z,0
2016-10-11T02:24:38.888Z,0
2016-10-11T02:25:38.668Z,0
2016-10-11T02:26:38.605Z,0
2016-10-11T02:27:38.593Z,0
2016-10-11T02:28:38.581Z,0
2016-10-11T02:29:38.575Z,0
2016-10-11T02:30:38.566Z,0
2016-10-11T02:31:38.555Z,0
2016-10-11T02:32:38.547Z,0
2016-10-11T02:33:38.540Z,0
2016-10-11T02:34:38.534Z,0
2016-10-11T02:35:38.528Z,0
2016-10-11T02:36:38.514Z,0
2016-10-11T02:37:38.804Z,0
2016-10-11T02:38:38.495Z,0
2016-10-11T02:39:38.486Z,0
2016-10-11T02:40:38.477Z,0
2016-10-11T02:41:38.473Z,0
2016-10-11T02:42:38.464Z,0
2016-10-11T02:43:38.457Z,0
2016-10-11T02:44:38.449Z,0
2016-10-11T02:45:38.435Z,0
2016-10-11T02:46:38.422Z,0
2016-10-11T02:47:38.429Z,0
2016-10-11T02:48:38.409Z,0
2016-10-11T02:49:38.405Z,0
2016-10-11T02:50:38.388Z,0
2016-10-11T02:51:38.387Z,0
2016-10-11T02:52:53.653Z,0
2016-10-11T02:53:38.928Z,0
2016-10-11T02:55:39.813Z,0
2016-10-11T02:56:38.345Z,0
2016-10-11T02:57:38.337Z,0
2016-10-11T02:58:38.330Z,0
2016-10-11T02:59:38.572Z,0
2016-10-11T03:00:38.309Z,0
2016-10-11T03:01:38.954Z,0
2016-10-11T03:02:39.599Z,0
2016-10-11T03:04:08.160Z,0
2016-10-11T03:04:53.487Z,0
2016-10-11T03:05:38.374Z,0
2016-10-11T03:06:39.108Z,0
2016-10-11T03:07:38.856Z,0
2016-10-11T03:08:38.241Z,0
2016-10-11T03:09:38.229Z,0
2016-10-11T03:10:38.474Z,0
2016-10-11T03:11:38.209Z,0
2016-10-11T03:12:38.211Z,0
2016-10-11T03:13:38.199Z,0
2016-10-11T03:14:38.207Z,0
2016-10-11T03:15:38.744Z,0
2016-10-11T03:16:38.175Z,0
2016-10-11T03:17:38.164Z,0
2016-10-11T03:18:38.156Z,0
2016-10-11T03:19:38.150Z,0
2016-10-11T03:20:38.694Z,0
2016-10-11T03:21:38.138Z,0
2016-10-11T03:22:38.122Z,0
2016-10-11T03:23:38.114Z,0
2016-10-11T03:24:38.109Z,0
2016-10-11T03:25:38.392Z,0
2016-10-11T03:26:41.021Z,0
2016-10-11T03:27:40.824Z,0
2016-10-11T03:28:38.830Z,0
2016-10-11T03:29:40.019Z,0
2016-10-11T03:30:38.311Z,0
2016-10-11T03:31:39.079Z,0
2016-10-11T03:32:38.051Z,0
2016-10-11T03:33:38.031Z,0
2016-10-11T03:34:38.023Z,0
2016-10-11T03:35:40.396Z,0
2016-10-11T03:36:40.415Z,0
2016-10-11T03:37:40.174Z,0
2016-10-11T03:38:38.612Z,0
2016-10-11T03:39:38.983Z,0
2016-10-11T03:40:38.534Z,0
2016-10-11T03:41:37.968Z,0
2016-10-11T03:42:37.959Z,0
2016-10-11T03:43:37.945Z,0
2016-10-11T03:44:37.941Z,0
2016-10-11T03:45:37.933Z,0
2016-10-11T03:46:38.277Z,0
2016-10-11T03:47:38.219Z,0
2016-10-11T03:48:37.911Z,0
2016-10-11T03:49:37.900Z,0
2016-10-11T03:50:37.891Z,0
2016-10-11T03:51:38.126Z,0
2016-10-11T03:52:38.172Z,0
2016-10-11T03:53:37.879Z,0
2016-10-11T03:54:37.868Z,0
2016-10-11T03:55:37.845Z,0
2016-10-11T03:56:38.088Z,0
2016-10-11T03:57:38.126Z,0
2016-10-11T03:58:37.820Z,0
2016-10-11T03:59:37.809Z,0
2016-10-11T04:00:37.799Z,0
2016-10-11T04:01:38.354Z,0
2016-10-11T04:02:37.787Z,0
2016-10-11T04:03:37.781Z,0
2016-10-11T04:04:37.772Z,0
2016-10-11T04:05:37.766Z,0
2016-10-11T04:06:38.048Z,0
2016-10-11T04:07:37.755Z,0
2016-10-11T04:08:37.737Z,0
2016-10-11T04:09:37.736Z,4
2016-10-11T04:10:38.666Z,8
2016-10-11T04:11:54.529Z,0
2016-10-11T04:12:53.167Z,0
2016-10-11T04:13:38.383Z,0
2016-10-11T04:14:38.446Z,0
2016-10-11T04:15:37.673Z,0
2016-10-11T04:16:37.924Z,0
2016-10-11T04:17:37.664Z,0
2016-10-11T04:18:37.652Z,0
2016-10-11T04:19:38.492Z,0
2016-10-11T04:20:52.594Z,0
2016-10-11T04:21:38.770Z,0
2016-10-11T04:22:39.114Z,0
2016-10-11T04:23:37.914Z,0
2016-10-11T04:24:38.351Z,0
2016-10-11T04:25:37.595Z,0
2016-10-11T04:26:37.835Z,0
2016-10-11T04:27:37.581Z,0
2016-10-11T04:28:37.563Z,0
2016-10-11T04:29:37.552Z,0
2016-10-11T04:30:37.544Z,0
2016-10-11T04:31:37.886Z,0
2016-10-11T04:32:37.828Z,0
2016-10-11T04:33:37.520Z,0
2016-10-11T04:34:37.514Z,0
2016-10-11T04:35:37.506Z,0
2016-10-11T04:36:37.748Z,0
2016-10-11T04:37:37.489Z,0
2016-10-11T04:38:37.484Z,0
2016-10-11T04:39:37.467Z,0
2016-10-11T04:40:37.470Z,0
2016-10-11T04:41:37.701Z,0
2016-10-11T04:42:37.442Z,0
2016-10-11T04:43:37.434Z,0
2016-10-11T04:44:39.781Z,0
2016-10-11T04:45:40.469Z,0
2016-10-11T04:46:37.958Z,0
2016-10-11T04:47:39.486Z,0
2016-10-11T04:48:37.396Z,0
2016-10-11T04:49:37.917Z,0
2016-10-11T04:50:37.681Z,4
2016-10-11T04:51:37.369Z,4
2016-10-11T04:52:37.361Z,4
2016-10-11T04:54:37.858Z,4
2016-10-11T04:55:38.792Z,4
2016-10-11T04:56:38.174Z,4
2016-10-11T04:57:37.324Z,4
2016-10-11T04:58:37.593Z,8
2016-10-11T04:59:37.577Z,4
2016-10-11T05:00:37.291Z,8
2016-10-11T05:01:37.282Z,12
2016-10-11T05:02:37.274Z,12
2016-10-11T05:03:37.261Z,16
2016-10-11T05:04:37.256Z,16
2016-10-11T05:05:37.246Z,20
2016-10-11T05:06:37.248Z,20
2016-10-11T05:07:37.232Z,24
2016-10-11T05:08:37.226Z,28
2016-10-11T05:09:37.212Z,32
2016-10-11T05:10:37.206Z,36
2016-10-11T05:11:37.200Z,44
2016-10-11T05:12:37.184Z,48
2016-10-11T05:13:37.181Z,52
2016-10-11T05:14:37.171Z,60
2016-10-11T05:15:37.162Z,64
2016-10-11T05:16:37.155Z,72
2016-10-11T05:17:37.147Z,84
2016-10-11T05:18:37.140Z,96
2016-10-11T05:19:37.128Z,108
2016-10-11T05:20:37.125Z,124
2016-10-11T05:21:37.136Z,136
2016-10-11T05:22:37.108Z,152
2016-10-11T05:23:37.101Z,168
2016-10-11T05:24:37.100Z,188
2016-10-11T05:25:37.084Z,208
2016-10-11T05:26:37.067Z,232
2016-10-11T05:27:37.068Z,260
2016-10-11T05:28:37.061Z,292
2016-10-11T05:29:37.543Z,324
2016-10-11T05:30:51.956Z,364
2016-10-11T05:31:37.431Z,392
2016-10-11T05:34:37.003Z,484
2016-10-11T05:35:37.000Z,504
2016-10-11T05:36:36.993Z,524
2016-10-11T05:37:36.986Z,544
2016-10-11T05:38:37.018Z,588
2016-10-11T05:39:37.942Z,608
2016-10-11T05:40:51.924Z,656
2016-10-11T05:41:37.453Z,684
2016-10-11T05:42:37.389Z,696
2016-10-11T05:43:36.935Z,740
2016-10-11T05:44:36.928Z,744
2016-10-11T05:45:36.917Z,732
2016-10-11T05:46:36.911Z,760
2016-10-11T05:47:36.900Z,780
2016-10-11T05:48:36.889Z,820
2016-10-11T05:49:36.888Z,884
2016-10-11T05:50:36.875Z,900
2016-10-11T05:51:36.873Z,912
2016-10-11T05:52:36.862Z,956
2016-10-11T05:53:36.848Z,1000
2016-10-11T05:54:36.852Z,1028
2016-10-11T05:55:36.839Z,1028
2016-10-11T05:56:36.824Z,1052
2016-10-11T05:57:36.820Z,1024
2016-10-11T05:58:36.815Z,960
2016-10-11T05:59:36.802Z,1036
2016-10-11T06:00:37.104Z,1140
2016-10-11T06:01:36.795Z,1132
2016-10-11T06:02:38.309Z,1216
2016-10-11T06:03:38.295Z,1360
2016-10-11T06:04:36.775Z,1608
2016-10-11T06:05:36.762Z,1764
2016-10-11T06:06:38.684Z,1900
2016-10-11T06:07:37.429Z,1992
2016-10-11T06:08:36.737Z,2188
2016-10-11T06:09:36.727Z,2372
2016-10-11T06:10:36.735Z,2540
2016-10-11T06:11:36.723Z,2652
2016-10-11T06:12:37.303Z,2752
2016-10-11T06:13:39.393Z,2860
2016-10-11T06:14:36.689Z,2996
2016-10-11T06:15:36.906Z,3180
2016-10-11T06:16:38.151Z,3360
2016-10-11T06:17:36.931Z,3540
2016-10-11T06:18:37.064Z,3740
2016-10-11T06:19:36.864Z,3896
2016-10-11T06:20:36.642Z,4020
2016-10-11T06:21:36.639Z,4168
2016-10-11T06:22:36.638Z,4332
2016-10-11T06:23:36.626Z,4448
2016-10-11T06:24:36.625Z,4492
2016-10-11T06:25:36.613Z,4508
2016-10-11T06:26:36.604Z,4476
2016-10-11T06:27:36.601Z,4428
2016-10-11T06:28:36.590Z,4436
2016-10-11T06:29:36.581Z,4532
2016-10-11T06:30:36.877Z,4704
2016-10-11T06:31:36.571Z,4872
2016-10-11T06:32:36.562Z,5004
2016-10-11T06:33:36.550Z,5048
2016-10-11T06:34:36.559Z,5028
2016-10-11T06:35:36.549Z,5008
2016-10-11T06:36:36.532Z,5088
2016-10-11T06:37:36.526Z,5232
2016-10-11T06:38:36.524Z,5360
2016-10-11T06:39:36.516Z,5416
2016-10-11T06:40:36.503Z,5456
2016-10-11T06:41:36.497Z,5600
2016-10-11T06:42:36.500Z,5744
2016-10-11T06:43:36.488Z,5808
2016-10-11T06:44:36.478Z,5828
2016-10-11T06:45:36.479Z,5856
2016-10-11T06:46:36.472Z,5888
2016-10-11T06:47:52.176Z,5952
2016-10-11T06:48:51.418Z,5960
2016-10-11T06:49:36.903Z,5932
2016-10-11T06:50:36.794Z,5860
2016-10-11T06:51:37.738Z,5760
2016-10-11T06:52:36.434Z,5628
2016-10-11T06:53:36.774Z,5496
2016-10-11T06:54:36.422Z,5384
2016-10-11T06:55:36.411Z,5276
2016-10-11T06:56:37.353Z,5172
2016-10-11T06:57:51.657Z,5044
2016-10-11T06:58:51.702Z,4920
2016-10-11T07:00:36.376Z,4780
2016-10-11T07:01:36.466Z,4744
2016-10-11T07:02:36.354Z,4660
2016-10-11T07:03:36.348Z,4604
2016-10-11T07:04:36.343Z,4500
2016-10-11T07:05:36.336Z,4476
2016-10-11T07:06:36.333Z,4456
2016-10-11T07:07:36.330Z,4492
2016-10-11T07:08:36.322Z,4548
2016-10-11T07:09:36.309Z,4632
2016-10-11T07:10:36.308Z,4764
2016-10-11T07:11:36.294Z,4908
2016-10-11T07:12:36.325Z,5116
2016-10-11T07:13:36.291Z,5240
2016-10-11T07:14:36.280Z,5284
2016-10-11T07:15:36.274Z,5300
2016-10-11T07:16:36.263Z,5368
2016-10-11T07:17:36.260Z,5340
2016-10-11T07:18:36.256Z,5600
2016-10-11T07:19:36.245Z,5872
2016-10-11T07:20:36.243Z,6112
2016-10-11T07:21:37.695Z,6476
2016-10-11T07:22:36.807Z,6900
2016-10-11T07:23:38.034Z,7292
2016-10-11T07:24:36.522Z,7552
2016-10-11T07:25:36.213Z,8108
2016-10-11T07:26:37.079Z,8520
2016-10-11T07:27:36.195Z,8696
2016-10-11T07:28:36.197Z,8816
2016-10-11T07:29:36.183Z,8872
2016-10-11T07:30:36.642Z,8820
2016-10-11T07:31:36.377Z,8804
2016-10-11T07:32:38.014Z,9072
2016-10-11T07:33:36.261Z,9272
2016-10-11T07:34:36.436Z,9600
2016-10-11T07:35:36.197Z,9908
2016-10-11T07:36:36.140Z,10428
2016-10-11T07:37:36.137Z,11044
2016-10-11T07:38:36.132Z,11472
2016-10-11T07:39:36.118Z,11808
2016-10-11T07:40:36.112Z,11564
2016-10-11T07:41:36.112Z,11520
2016-10-11T07:42:36.108Z,11096
2016-10-11T07:43:36.103Z,10364
2016-10-11T07:44:36.090Z,9756
2016-10-11T07:45:36.386Z,9744
2016-10-11T07:46:36.076Z,9632
2016-10-11T07:47:36.076Z,9664
2016-10-11T07:48:36.068Z,10700
2016-10-11T07:49:36.059Z,11928
2016-10-11T07:50:36.058Z,12424
2016-10-11T07:51:36.058Z,12736
2016-10-11T07:52:36.047Z,13144
2016-10-11T07:53:36.342Z,13456
2016-10-11T07:54:36.240Z,13716
2016-10-11T07:55:36.039Z,13576
2016-10-11T07:56:36.023Z,13536
2016-10-11T07:57:36.026Z,13316
2016-10-11T07:58:36.007Z,13392
2016-10-11T07:59:36.006Z,13824
2016-10-11T08:00:36.004Z,13852
2016-10-11T08:01:35.984Z,14020
2016-10-11T08:02:35.990Z,14152
2016-10-11T08:03:35.986Z,13896
2016-10-11T08:04:35.999Z,13860
2016-10-11T08:06:36.313Z,15012
2016-10-11T08:07:36.418Z,15856
2016-10-11T08:09:35.963Z,16640
2016-10-11T08:10:36.947Z,16512
2016-10-11T08:11:35.929Z,16736
2016-10-11T08:12:36.186Z,16800
2016-10-11T08:13:35.919Z,16384
2016-10-11T08:14:36.674Z,16104
2016-10-11T08:15:50.831Z,14908
2016-10-11T08:17:51.173Z,12528
2016-10-11T08:18:37.254Z,11620
2016-10-11T08:19:35.937Z,10604
2016-10-11T08:20:36.337Z,10148
2016-10-11T08:21:36.050Z,9896
2016-10-11T08:22:35.881Z,9580
2016-10-11T08:23:35.869Z,9856
2016-10-11T08:24:35.869Z,10940
2016-10-11T08:25:35.857Z,11596
2016-10-11T08:26:35.873Z,11240
2016-10-11T08:27:35.849Z,10616
2016-10-11T08:28:35.857Z,10188
2016-10-11T08:29:35.835Z,10644
2016-10-11T08:30:35.840Z,11068
2016-10-11T08:31:35.833Z,12044
2016-10-11T08:32:35.824Z,13344
2016-10-11T08:33:35.822Z,14536
2016-10-11T08:34:35.810Z,15716
2016-10-11T08:35:35.812Z,15620
2016-10-11T08:36:35.800Z,15332
2016-10-11T08:37:35.799Z,14932
2016-10-11T08:38:35.794Z,15220
2016-10-11T08:39:36.843Z,15632
2016-10-11T08:40:37.111Z,15508
2016-10-11T08:41:37.293Z,14904
2016-10-11T08:42:35.994Z,14464
2016-10-11T08:43:36.628Z,13888
2016-10-11T08:44:36.305Z,11948
2016-10-11T08:45:35.749Z,11152
2016-10-11T08:46:35.748Z,11276
2016-10-11T08:47:35.744Z,12580
2016-10-11T08:49:36.677Z,13836
2016-10-11T08:50:37.419Z,14232
2016-10-11T08:51:36.563Z,14868
2016-10-11T08:52:35.717Z,15868
2016-10-11T08:53:35.710Z,16320
2016-10-11T08:54:35.706Z,17408
2016-10-11T08:55:35.700Z,16864
2016-10-11T08:56:35.702Z,17152
2016-10-11T08:57:35.688Z,17696
2016-10-11T08:58:35.688Z,17408
2016-10-11T08:59:35.679Z,16992
2016-10-11T09:00:35.670Z,16128
2016-10-11T09:01:35.670Z,15700
2016-10-11T09:02:35.669Z,15352
2016-10-11T09:03:35.660Z,15224
2016-10-11T09:04:35.662Z,14732
2016-10-11T09:05:35.659Z,14204
2016-10-11T09:06:35.647Z,13728
2016-10-11T09:07:35.651Z,13792
2016-10-11T09:08:35.633Z,14580
2016-10-11T09:09:35.633Z,14788
2016-10-11T09:10:35.625Z,14728
2016-10-11T09:11:35.929Z,14732
2016-10-11T09:12:35.615Z,14540
2016-10-11T09:13:35.617Z,13952
2016-10-11T09:14:35.608Z,13236
2016-10-11T09:15:35.608Z,12376
2016-10-11T09:16:35.605Z,12044
2016-10-11T09:17:35.596Z,11572
2016-10-11T09:18:35.595Z,11008
2016-10-11T09:19:35.593Z,10916
2016-10-11T09:20:35.576Z,10840
2016-10-11T09:21:35.581Z,10028
2016-10-11T09:22:35.570Z,9720
2016-10-11T09:24:51.730Z,9716
2016-10-11T09:25:37.211Z,9676
2016-10-11T09:27:35.541Z,10048
2016-10-11T09:28:35.550Z,9292
2016-10-11T09:29:35.537Z,8360
2016-10-11T09:30:35.541Z,7980
2016-10-11T09:31:35.531Z,7640
2016-10-11T09:32:35.535Z,7048
2016-10-11T09:33:51.245Z,6056
2016-10-11T09:35:35.721Z,6308
2016-10-11T09:36:36.255Z,8180
2016-10-11T09:37:35.899Z,9856
2016-10-11T09:38:35.492Z,10364
2016-10-11T09:39:35.488Z,10516
2016-10-11T09:40:35.489Z,10696
2016-10-11T09:41:35.484Z,10708
2016-10-11T09:42:35.483Z,11028
2016-10-11T09:43:35.472Z,11224
2016-10-11T09:44:35.470Z,11552
2016-10-11T09:45:35.463Z,10916
2016-10-11T09:46:35.460Z,9688
2016-10-11T09:47:35.447Z,8900
2016-10-11T09:48:35.442Z,8816
2016-10-11T09:49:35.446Z,9476
2016-10-11T09:50:35.426Z,9568
2016-10-11T09:51:35.431Z,9276
2016-10-11T09:52:35.725Z,9408
2016-10-11T09:53:35.431Z,9852
2016-10-11T09:54:35.417Z,10764
2016-10-11T09:55:35.407Z,12460
2016-10-11T09:56:35.414Z,13408
2016-10-11T09:57:36.085Z,13692
2016-10-11T09:58:37.440Z,14572
2016-10-11T09:59:35.387Z,14684
2016-10-11T10:00:35.378Z,14300
2016-10-11T10:01:36.933Z,13868
2016-10-11T10:02:35.494Z,13772
2016-10-11T10:03:35.855Z,12932
2016-10-11T10:04:35.576Z,11588
2016-10-11T10:05:35.355Z,11168
2016-10-11T10:06:35.355Z,10320
2016-10-11T10:07:36.807Z,9732
2016-10-11T10:08:35.347Z,8032
2016-10-11T10:09:35.598Z,6832
2016-10-11T10:10:35.690Z,6764
2016-10-11T10:11:36.690Z,7152
2016-10-11T10:12:35.320Z,7904
2016-10-11T10:13:35.317Z,8740
2016-10-11T10:14:35.317Z,9096
2016-10-11T10:15:35.307Z,9448
2016-10-11T10:16:35.302Z,9576
2016-10-11T10:17:35.302Z,8616
2016-10-11T10:18:35.289Z,7184
2016-10-11T10:19:35.287Z,6568
2016-10-11T10:20:35.291Z,5676
2016-10-11T10:21:35.278Z,5476
2016-10-11T10:22:35.264Z,6476
2016-10-11T10:23:35.272Z,7528
2016-10-11T10:24:35.261Z,8700
2016-10-11T10:25:35.254Z,10356
2016-10-11T10:26:35.241Z,10800
2016-10-11T10:27:35.263Z,10728
2016-10-11T10:28:35.230Z,11488
2016-10-11T10:29:35.228Z,12160
2016-10-11T10:30:35.224Z,11716
2016-10-11T10:31:35.231Z,11168
2016-10-11T10:32:35.214Z,10920
2016-10-11T10:33:35.204Z,11488
2016-10-11T10:34:35.207Z,11828
2016-10-11T10:35:35.191Z,11712
2016-10-11T10:36:35.198Z,11180
2016-10-11T10:37:35.186Z,10748
2016-10-11T10:38:35.179Z,10784
2016-10-11T10:39:35.173Z,10876
2016-10-11T10:40:35.173Z,10676
2016-10-11T10:41:35.172Z,10292
2016-10-11T10:42:51.073Z,9852
2016-10-11T10:43:36.105Z,9568
2016-10-11T10:44:50.310Z,9016
2016-10-11T10:45:35.143Z,8468
2016-10-11T10:46:35.132Z,7704
2016-10-11T10:47:36.047Z,7096
2016-10-11T10:48:35.129Z,6764
2016-10-11T10:49:35.121Z,6744
2016-10-11T10:50:35.115Z,6712
2016-10-11T10:51:50.276Z,6940
2016-10-11T10:52:50.776Z,6900
2016-10-11T10:53:50.319Z,7016
2016-10-11T10:54:35.748Z,7416
2016-10-11T10:55:35.939Z,7872
2016-10-11T10:56:35.385Z,8192
2016-10-11T10:57:35.079Z,8516
2016-10-11T10:58:35.428Z,8548
2016-10-11T10:59:35.074Z,8248
2016-10-11T11:00:35.070Z,7836
2016-10-11T11:01:35.057Z,7492
2016-10-11T11:02:35.054Z,7476
2016-10-11T11:03:35.049Z,7608
2016-10-11T11:04:35.033Z,7560
2016-10-11T11:05:35.036Z,7548
2016-10-11T11:06:35.025Z,7848
2016-10-11T11:07:35.021Z,7804
2016-10-11T11:08:35.017Z,7836
2016-10-11T11:09:35.014Z,8156
2016-10-11T11:10:35.008Z,8260
2016-10-11T11:11:35.002Z,8200
2016-10-11T11:12:34.995Z,7820
2016-10-11T11:13:35.002Z,7396
2016-10-11T11:14:34.982Z,7396
2016-10-11T11:15:34.979Z,7344
2016-10-11T11:16:37.255Z,7152
2016-10-11T11:17:36.413Z,7564
2016-10-11T11:18:37.226Z,8600
2016-10-11T11:19:34.963Z,9344
2016-10-11T11:20:34.961Z,9488
2016-10-11T11:21:35.650Z,9340
2016-10-11T11:22:34.945Z,8884
2016-10-11T11:23:34.939Z,8020
2016-10-11T11:24:34.932Z,7104
2016-10-11T11:25:36.438Z,6048
2016-10-11T11:26:35.957Z,5440
2016-10-11T11:27:37.372Z,4904
2016-10-11T11:28:35.417Z,4268
2016-10-11T11:29:35.406Z,4016
2016-10-11T11:30:35.008Z,3908
2016-10-11T11:31:34.895Z,3560
2016-10-11T11:32:34.886Z,3336
2016-10-11T11:33:34.900Z,3316
2016-10-11T11:34:34.876Z,3316
2016-10-11T11:35:34.866Z,3504
2016-10-11T11:36:35.074Z,4068
2016-10-11T11:37:34.850Z,4056
2016-10-11T11:38:34.846Z,4412
2016-10-11T11:39:34.850Z,5128
2016-10-11T11:40:34.840Z,5804
2016-10-11T11:41:34.843Z,6048
2016-10-11T11:42:34.833Z,7168
2016-10-11T11:43:34.819Z,8404
2016-10-11T11:44:34.808Z,8068
2016-10-11T11:45:34.803Z,7780
2016-10-11T11:46:34.821Z,7416
2016-10-11T11:47:34.795Z,7516
2016-10-11T11:48:34.795Z,8240
2016-10-11T11:49:34.782Z,7964
2016-10-11T11:50:34.774Z,8068
2016-10-11T11:51:34.775Z,8600
2016-10-11T11:52:34.759Z,8772
2016-10-11T11:53:34.761Z,8596
2016-10-11T11:54:34.755Z,8236
2016-10-11T11:55:34.747Z,8164
2016-10-11T11:56:34.746Z,7568
2016-10-11T11:57:34.747Z,7236
2016-10-11T11:58:35.025Z,6104
2016-10-11T11:59:34.713Z,5556
2016-10-11T12:00:36.563Z,6192
2016-10-11T12:02:51.109Z,6276
2016-10-11T12:03:50.069Z,6604
2016-10-11T12:04:35.141Z,7352
2016-10-11T12:05:35.225Z,9068
2016-10-11T12:06:35.019Z,9444
2016-10-11T12:07:34.664Z,9100
2016-10-11T12:08:34.659Z,8252
2016-10-11T12:09:52.069Z,6796
2016-10-11T12:10:35.089Z,6408
2016-10-11T12:13:35.184Z,6996
2016-10-11T12:14:34.870Z,6888
2016-10-11T12:15:34.607Z,5396
2016-10-11T12:16:34.610Z,5304
2016-10-11T12:17:34.600Z,5372
2016-10-11T12:18:34.591Z,4992
2016-10-11T12:19:34.832Z,3732
2016-10-11T12:20:34.579Z,4576
2016-10-11T12:21:34.574Z,6220
2016-10-11T12:22:34.571Z,6720
2016-10-11T12:23:34.561Z,6420
2016-10-11T12:24:34.810Z,4640
2016-10-11T12:25:34.542Z,4400
2016-10-11T12:26:34.539Z,4712
2016-10-11T12:27:34.520Z,6192
2016-10-11T12:28:34.520Z,7452
2016-10-11T12:29:34.864Z,7256
2016-10-11T12:30:34.514Z,7520
2016-10-11T12:31:34.504Z,8420
2016-10-11T12:32:34.493Z,7920
2016-10-11T12:33:34.488Z,7812
2016-10-11T12:34:37.255Z,7564
2016-10-11T12:35:37.160Z,7580
2016-10-11T12:36:36.893Z,7576
2016-10-11T12:37:35.275Z,6692
2016-10-11T12:38:35.609Z,6572
2016-10-11T12:39:35.331Z,6396
2016-10-11T12:40:34.435Z,7480
2016-10-11T12:41:34.424Z,9408
2016-10-11T12:42:34.425Z,10092
2016-10-11T12:43:36.122Z,10724
2016-10-11T12:44:36.598Z,11216
2016-10-11T12:45:36.922Z,10136
2016-10-11T12:46:35.813Z,9708
2016-10-11T12:47:34.381Z,8776
2016-10-11T12:48:34.386Z,8676
2016-10-11T12:49:34.683Z,6948
2016-10-11T12:50:34.366Z,6500
2016-10-11T12:51:34.361Z,6496
2016-10-11T12:52:34.360Z,6376
2016-10-11T12:53:34.350Z,8748
2016-10-11T12:54:34.340Z,9976
2016-10-11T12:55:34.341Z,9644
2016-10-11T12:56:34.323Z,9176
2016-10-11T12:57:34.315Z,8472
2016-10-11T12:58:34.308Z,8116
2016-10-11T12:59:34.303Z,7184
2016-10-11T13:00:34.309Z,6264
2016-10-11T13:01:34.305Z,5576
2016-10-11T13:02:34.285Z,5924
2016-10-11T13:03:34.279Z,5628
2016-10-11T13:04:34.279Z,5784
2016-10-11T13:05:34.260Z,5868
2016-10-11T13:06:34.256Z,5200
2016-10-11T13:07:34.255Z,4380
2016-10-11T13:08:34.244Z,3608
2016-10-11T13:09:34.237Z,3240
2016-10-11T13:10:34.224Z,3388
2016-10-11T13:11:34.212Z,3424
2016-10-11T13:12:34.218Z,3340
2016-10-11T13:13:34.201Z,3264
2016-10-11T13:14:34.191Z,3324
2016-10-11T13:15:34.189Z,3716
2016-10-11T13:16:34.185Z,4872
2016-10-11T13:17:34.172Z,4820
2016-10-11T13:18:49.134Z,4668
2016-10-11T13:19:36.863Z,4328
2016-10-11T13:21:35.699Z,4628
2016-10-11T13:22:35.137Z,3704
2016-10-11T13:23:34.131Z,3172
2016-10-11T13:24:34.574Z,2828
2016-10-11T13:25:34.124Z,2412
2016-10-11T13:26:34.109Z,2040
2016-10-11T13:27:50.268Z,1772
2016-10-11T13:28:35.100Z,1884
2016-10-11T13:29:34.087Z,1960
2016-10-11T13:30:49.039Z,1700
2016-10-11T13:31:35.012Z,1908
2016-10-11T13:32:34.963Z,2368
2016-10-11T13:33:34.049Z,2548
2016-10-11T13:34:34.054Z,2772
2016-10-11T13:35:34.338Z,3220
2016-10-11T13:36:34.032Z,3760
2016-10-11T13:37:34.028Z,4228
2016-10-11T13:38:34.018Z,4880
2016-10-11T13:39:34.013Z,5168
2016-10-11T13:40:34.297Z,5384
2016-10-11T13:41:33.996Z,5220
2016-10-11T13:42:33.980Z,4724
2016-10-11T13:43:33.979Z,4328
2016-10-11T13:44:33.973Z,4024
2016-10-11T13:45:34.308Z,4024
2016-10-11T13:46:33.951Z,4288
2016-10-11T13:47:33.936Z,4300
2016-10-11T13:48:33.942Z,4400
2016-10-11T13:49:33.934Z,4164
2016-10-11T13:50:34.169Z,2960
2016-10-11T13:51:33.910Z,2000
2016-10-11T13:52:36.577Z,2164
2016-10-11T13:53:37.253Z,2552
2016-10-11T13:54:36.486Z,2684
2016-10-11T13:55:35.773Z,2884
2016-10-11T13:56:34.850Z,3092
2016-10-11T13:57:35.013Z,2808
2016-10-11T13:58:33.856Z,2620
2016-10-11T13:59:34.221Z,2392
2016-10-11T14:00:34.150Z,2676
2016-10-11T14:01:36.931Z,2944
2016-10-11T14:03:36.289Z,3564
2016-10-11T14:04:36.022Z,4028
2016-10-11T14:05:35.498Z,4448